Aérodrome :
LOGIN :

S'inscrire | Disclaimer

   EN    FR    IT 

 










Légende :    VFR   VFR Marginal   IFR   IFR Intensif   IFR Très Intensif
Visi : 
Plafond : 
>= 8 km
>= 3000ft
5 à 8 km
1000 à 3000 ft
1500m à 5 km
500 à 1000 ft
800 à 1500m
200 à 500 ft
< 800m
< 200 ft
Symboles :   Orages  Brouillard  Fortes neiges  Fortes précipitations  Vent > 20 kt
SIGMETs :   Divers  Orages  Givrage  Turbulence  Onde Orograph.  Cendres Volcan.






- Altitude de l'aérodrome : 1300 ft
- Code IATA : LIG


LFBL - Limoges

DERNIER METAR :
  • 032030Z AUTO 36004KT 320V030 CAVOK 21/11 Q1021 TEMPO VRB20G30KT 4000 TSRA BECMG SCT050 FEW070CB SCT120

METARs EXPIRÉS :
  • 032000Z AUTO 35004KT 320V030 CAVOK 21/11 Q1021 TEMPO VRB20G30KT 4000 TSRA BECMG SCT050 FEW070CB SCT120
  • 031930Z AUTO 34005KT 310V010 CAVOK 22/11 Q1021 TEMPO VRB20G30KT 4000 TSRA BECMG SCT050 FEW070CB SCT120
  • 031900Z AUTO 34004KT 310V010 CAVOK 22/12 Q1020 TEMPO VRB20G30KT 4000 TSRA BECMG SCT050 FEW070CB SCT120
  • 031830Z AUTO 34006KT 320V020 CAVOK 23/11 Q1020 TEMPO VRB20G30KT 4000 TSRA BECMG SCT050 FEW070CB SCT120
  • 030500Z AUTO 01009KT CAVOK 16/10 Q1020 NOSIG
  • 031800Z AUTO 36006KT 330V040 CAVOK 23/11 Q1020 BECMG SCT050 FEW070CB SCT120

TAF TAF LFBL
Valide du 03 à 18h jusqu'au 04 à 18h UTC


031700Z 0318/0418 34006KT CAVOK
BECMG 0319/0321 SCT050 FEW070CB SCT120
PROB30
TEMPO 0320/0323 VRB20G30KT 4000 TSRA
BECMG 0400/0402 CAVOK
TEMPO 0409/0417 SCT040 FEW065CB BKN100
ATIS : +33 5 55 48 40 37



MET'MAP, la Météo Aéronautique d'un coup d'oeil ! - Copyright ORBIFLY Décembre 2007 - Disclaimer

ORBIFLY MET'MAP TEAM :

Programmation & Développement : Alexandra Zaïnal
Sur une idée originale de : Baudouin d'Aumeries
Soutien technique & logistique : Manuel Goepfert
Assistance : Marc-Olivier Méhu




SOURCES & CREDITS :

   NOAA